createdAt,value
2022-12-31T00:01:08.944Z,1.10
2022-12-31T00:03:37.455Z,1.05
2022-12-31T00:06:30.404Z,1.15
2022-12-31T00:09:00.331Z,1.00
2022-12-31T00:11:32.247Z,1.13
2022-12-31T00:14:03.655Z,1.02
2022-12-31T00:19:02.219Z,0.90
2022-12-31T00:21:33.325Z,1.10
2022-12-31T00:24:01.969Z,1.15
2022-12-31T00:26:32.742Z,1.13
2022-12-31T00:29:02.303Z,1.00
2022-12-31T00:31:33.438Z,1.30
2022-12-31T00:34:01.965Z,1.17
2022-12-31T00:36:36.035Z,1.27
2022-12-31T00:39:06.651Z,1.15
2022-12-31T00:41:35.194Z,1.20
2022-12-31T00:44:03.622Z,0.90
2022-12-31T00:46:32.931Z,1.00
2022-12-31T00:49:01.017Z,0.98
2022-12-31T00:51:29.172Z,0.80
2022-12-31T00:53:58.465Z,0.60
2022-12-31T00:56:29.124Z,0.80
2022-12-31T00:58:57.542Z,1.00
2022-12-31T01:01:31.834Z,0.68
2022-12-31T01:04:10.415Z,0.65
2022-12-31T01:06:42.073Z,0.90
2022-12-31T01:09:11.768Z,0.82
2022-12-31T01:11:40.100Z,0.63
2022-12-31T01:14:16.478Z,0.70
2022-12-31T01:16:48.125Z,0.60
2022-12-31T01:19:19.203Z,0.80
2022-12-31T01:21:49.109Z,0.90
2022-12-31T01:24:17.877Z,0.57
2022-12-31T01:26:46.844Z,0.50
2022-12-31T01:29:15.567Z,0.52
2022-12-31T01:31:43.828Z,0.57
2022-12-31T01:34:12.215Z,0.38
2022-12-31T01:36:40.698Z,0.60
2022-12-31T01:39:10.338Z,0.60
2022-12-31T01:41:42.815Z,0.52
2022-12-31T01:44:13.829Z,0.55
2022-12-31T01:47:03.746Z,0.68
2022-12-31T01:49:48.931Z,0.50
2022-12-31T01:52:26.763Z,0.40
2022-12-31T01:55:10.576Z,0.65
2022-12-31T01:57:39.292Z,0.40
2022-12-31T02:00:08.261Z,0.32
2022-12-31T02:02:36.401Z,0.45
2022-12-31T02:05:13.374Z,0.32
2022-12-31T02:07:41.454Z,0.40
2022-12-31T02:10:09.710Z,0.50
2022-12-31T02:12:37.728Z,0.50
2022-12-31T02:15:06.615Z,0.70
2022-12-31T02:18:18.295Z,0.70
2022-12-31T02:21:02.308Z,0.40
2022-12-31T02:24:07.057Z,0.55
2022-12-31T02:26:53.899Z,0.40
2022-12-31T02:29:52.582Z,0.55
2022-12-31T02:32:28.663Z,0.40
2022-12-31T02:35:18.913Z,0.57
2022-12-31T02:37:51.596Z,0.50
2022-12-31T02:40:22.169Z,0.50
2022-12-31T02:42:55.272Z,0.50
2022-12-31T02:45:30.478Z,0.50
2022-12-31T02:48:10.595Z,0.40
2022-12-31T02:50:58.724Z,0.50
2022-12-31T02:53:57.589Z,0.35
2022-12-31T02:57:00.931Z,0.40
2022-12-31T02:59:56.627Z,0.43
2022-12-31T03:02:25.758Z,0.55
2022-12-31T03:04:56.020Z,0.52
2022-12-31T03:07:30.500Z,0.38
2022-12-31T03:09:58.832Z,0.45
2022-12-31T03:12:55.972Z,0.40
2022-12-31T03:15:31.520Z,0.50
2022-12-31T03:18:04.893Z,0.40
2022-12-31T03:20:57.538Z,0.40
2022-12-31T03:23:37.438Z,0.40
2022-12-31T03:26:17.022Z,0.40
2022-12-31T03:28:48.860Z,0.40
2022-12-31T03:31:17.366Z,0.45
2022-12-31T03:33:45.376Z,0.40
2022-12-31T03:36:15.804Z,0.40
2022-12-31T03:38:48.544Z,0.52
2022-12-31T03:41:20.662Z,0.40
2022-12-31T03:43:48.611Z,0.40
2022-12-31T03:46:16.647Z,0.30
2022-12-31T03:48:44.763Z,0.35
2022-12-31T03:51:12.827Z,0.40
2022-12-31T03:53:40.872Z,0.40
2022-12-31T03:56:08.956Z,0.40
2022-12-31T03:58:36.967Z,0.35
2022-12-31T04:01:05.183Z,0.50
2022-12-31T04:03:33.321Z,0.40
2022-12-31T04:06:01.366Z,0.50
2022-12-31T04:08:29.355Z,0.57
2022-12-31T04:10:57.400Z,0.50
2022-12-31T04:13:25.403Z,0.40
2022-12-31T04:15:53.418Z,0.32
2022-12-31T04:18:21.543Z,0.40
2022-12-31T04:20:49.730Z,0.40
2022-12-31T04:23:18.056Z,0.35
2022-12-31T04:25:46.046Z,0.38
2022-12-31T04:28:14.076Z,0.32
2022-12-31T04:30:42.099Z,0.70
2022-12-31T04:33:10.235Z,0.30
2022-12-31T04:35:38.371Z,0.30
2022-12-31T04:38:06.427Z,0.40
2022-12-31T04:40:34.491Z,0.40
2022-12-31T04:43:02.513Z,0.38
2022-12-31T04:45:30.509Z,0.50
2022-12-31T04:47:58.568Z,0.40
2022-12-31T04:50:26.725Z,0.20
2022-12-31T04:52:55.225Z,0.40
2022-12-31T04:55:23.548Z,0.30
2022-12-31T04:57:51.686Z,0.50
2022-12-31T05:00:20.219Z,0.40
2022-12-31T05:02:48.340Z,0.40
2022-12-31T05:05:16.711Z,0.40
2022-12-31T05:07:44.718Z,0.80
2022-12-31T05:10:14.468Z,0.50
2022-12-31T05:12:42.514Z,0.50
2022-12-31T05:15:10.806Z,0.45
2022-12-31T05:17:38.861Z,0.40
2022-12-31T05:20:07.716Z,0.40
2022-12-31T05:22:41.963Z,0.40
2022-12-31T05:25:13.084Z,0.50
2022-12-31T05:27:41.361Z,0.40
2022-12-31T05:30:10.174Z,0.40
2022-12-31T05:32:38.625Z,0.30
2022-12-31T05:35:07.227Z,0.30
2022-12-31T05:37:35.702Z,0.28
2022-12-31T05:40:04.186Z,0.38
2022-12-31T05:42:32.192Z,0.43
2022-12-31T05:45:00.210Z,0.63
2022-12-31T05:47:28.430Z,0.50
2022-12-31T05:49:56.559Z,0.32
2022-12-31T05:52:24.744Z,0.40
2022-12-31T05:54:53.883Z,0.40
2022-12-31T05:57:24.120Z,0.60
2022-12-31T05:59:54.643Z,0.40
2022-12-31T06:02:23.371Z,0.50
2022-12-31T06:04:53.770Z,0.60
2022-12-31T06:07:26.891Z,0.43
2022-12-31T06:09:55.442Z,0.47
2022-12-31T06:12:24.536Z,0.90
2022-12-31T06:14:52.563Z,0.70
2022-12-31T06:17:21.732Z,0.68
2022-12-31T06:19:51.544Z,0.80
2022-12-31T06:22:20.440Z,0.70
2022-12-31T06:24:49.582Z,0.40
2022-12-31T06:27:18.927Z,0.50
2022-12-31T06:29:47.131Z,0.57
2022-12-31T06:32:15.237Z,0.50
2022-12-31T06:34:43.241Z,0.55
2022-12-31T06:37:15.520Z,0.50
2022-12-31T06:39:43.672Z,0.55
2022-12-31T06:42:11.719Z,0.50
2022-12-31T06:44:39.675Z,0.70
2022-12-31T06:47:07.894Z,0.55
2022-12-31T06:49:38.862Z,0.60
2022-12-31T06:52:06.896Z,0.70
2022-12-31T06:54:36.108Z,0.60
2022-12-31T06:57:04.409Z,0.57
2022-12-31T06:59:32.841Z,0.60
2022-12-31T07:02:15.817Z,0.57
2022-12-31T07:04:59.112Z,0.60
2022-12-31T07:07:40.441Z,1.42
2022-12-31T07:10:38.159Z,0.80
2022-12-31T07:13:16.021Z,0.85
2022-12-31T07:16:07.637Z,0.60
2022-12-31T07:21:29.544Z,0.60
2022-12-31T07:24:05.178Z,0.95
2022-12-31T07:26:54.283Z,0.80
2022-12-31T07:29:43.135Z,0.68
2022-12-31T07:32:11.084Z,1.10
2022-12-31T07:35:13.522Z,1.10
2022-12-31T07:37:54.630Z,1.25
2022-12-31T07:40:35.812Z,0.70
2022-12-31T07:43:19.328Z,0.60
2022-12-31T07:46:05.787Z,1.13
2022-12-31T07:48:35.341Z,0.70
2022-12-31T07:51:05.233Z,0.70
2022-12-31T07:53:39.007Z,0.80
2022-12-31T07:56:11.536Z,0.80
2022-12-31T07:58:49.574Z,1.10
2022-12-31T08:01:26.696Z,1.23
2022-12-31T08:04:06.857Z,1.10
2022-12-31T08:06:45.930Z,0.90
2022-12-31T08:09:32.663Z,0.80
2022-12-31T08:12:13.183Z,0.80
2022-12-31T08:14:48.866Z,0.63
2022-12-31T08:17:25.609Z,0.90
2022-12-31T08:20:17.539Z,1.00
2022-12-31T08:26:00.962Z,1.00
2022-12-31T08:29:09.088Z,0.90
2022-12-31T08:32:05.527Z,0.80
2022-12-31T08:34:42.339Z,0.80
2022-12-31T08:37:16.839Z,0.60
2022-12-31T08:40:13.943Z,0.70
2022-12-31T08:43:03.322Z,0.57
2022-12-31T08:45:42.955Z,0.57
2022-12-31T08:48:19.824Z,0.80
2022-12-31T08:50:48.027Z,0.50
2022-12-31T08:53:16.126Z,0.60
2022-12-31T08:55:51.238Z,0.32
2022-12-31T08:59:05.125Z,0.50
2022-12-31T09:01:45.283Z,0.50
2022-12-31T09:04:40.469Z,0.50
2022-12-31T09:07:10.689Z,0.57
2022-12-31T09:10:00.578Z,0.73
2022-12-31T09:12:57.522Z,0.68
2022-12-31T09:15:53.742Z,0.52
2022-12-31T09:18:23.088Z,0.50
2022-12-31T09:20:52.911Z,0.75
2022-12-31T09:23:21.244Z,0.90
2022-12-31T09:26:31.966Z,0.60
2022-12-31T09:29:05.970Z,0.90
2022-12-31T09:31:58.028Z,0.82
2022-12-31T09:34:35.322Z,0.70
2022-12-31T09:37:39.626Z,0.93
2022-12-31T09:40:45.997Z,2.17
2022-12-31T09:43:43.027Z,2.55
2022-12-31T09:46:44.586Z,1.33
2022-12-31T09:49:44.064Z,0.80
2022-12-31T09:52:43.933Z,0.55
2022-12-31T09:55:48.664Z,0.52
2022-12-31T09:58:29.456Z,0.57
2022-12-31T10:01:14.726Z,0.70
2022-12-31T10:04:26.696Z,0.60
2022-12-31T10:10:10.606Z,0.70
2022-12-31T10:13:16.107Z,0.60
2022-12-31T10:16:21.818Z,0.43
2022-12-31T10:19:12.747Z,0.63
2022-12-31T10:22:00.148Z,0.40
2022-12-31T10:24:50.537Z,0.70
2022-12-31T10:27:40.615Z,0.40
2022-12-31T10:30:18.794Z,0.45
2022-12-31T10:33:22.388Z,0.40
2022-12-31T10:36:10.622Z,0.40
2022-12-31T10:39:24.879Z,0.50
2022-12-31T10:41:58.007Z,0.75
2022-12-31T10:44:39.742Z,0.50
2022-12-31T10:47:22.464Z,0.50
2022-12-31T10:50:14.907Z,0.32
2022-12-31T10:53:16.754Z,0.50
2022-12-31T10:55:56.876Z,0.50
2022-12-31T10:58:53.445Z,0.40
2022-12-31T11:01:35.696Z,0.55
2022-12-31T11:04:09.709Z,0.40
2022-12-31T11:07:03.963Z,0.50
2022-12-31T11:09:43.115Z,0.50
2022-12-31T11:12:44.692Z,0.65
2022-12-31T11:18:07.365Z,0.50
2022-12-31T11:21:07.492Z,2.30
2022-12-31T11:23:50.261Z,0.60
2022-12-31T11:26:57.304Z,0.50
2022-12-31T11:30:13.324Z,0.90
2022-12-31T11:33:06.010Z,0.70
2022-12-31T11:35:58.201Z,0.70
2022-12-31T11:38:50.242Z,0.88
2022-12-31T11:41:40.518Z,0.85
2022-12-31T11:44:30.304Z,0.73
2022-12-31T11:47:26.770Z,0.95
2022-12-31T11:50:16.739Z,0.60
2022-12-31T11:53:00.928Z,1.02
2022-12-31T11:55:39.587Z,0.85
2022-12-31T11:58:17.604Z,0.80
2022-12-31T12:01:05.220Z,0.60
2022-12-31T12:03:33.997Z,0.45
2022-12-31T12:06:02.013Z,0.60
2022-12-31T12:08:33.454Z,0.90
2022-12-31T12:11:08.926Z,0.55
2022-12-31T12:13:36.808Z,0.65
2022-12-31T12:16:08.883Z,0.70
2022-12-31T12:18:41.865Z,0.70
2022-12-31T12:21:21.071Z,0.63
2022-12-31T12:24:35.688Z,0.80
2022-12-31T12:27:03.620Z,0.90
2022-12-31T12:29:37.623Z,0.90
2022-12-31T12:32:18.081Z,0.80
2022-12-31T12:34:49.810Z,0.93
2022-12-31T12:37:26.001Z,0.88
2022-12-31T12:40:06.471Z,0.90
2022-12-31T12:42:51.821Z,0.82
2022-12-31T12:45:26.344Z,0.80
2022-12-31T12:48:03.602Z,0.80
2022-12-31T12:50:45.189Z,0.90
2022-12-31T12:53:32.051Z,0.82
2022-12-31T12:56:31.669Z,0.60
2022-12-31T12:59:21.617Z,0.65
2022-12-31T13:02:06.158Z,0.60
2022-12-31T13:05:03.647Z,0.90
2022-12-31T13:07:49.667Z,0.90
2022-12-31T13:10:17.598Z,0.88
2022-12-31T13:13:25.417Z,0.90
2022-12-31T13:16:11.792Z,1.10
2022-12-31T13:18:54.224Z,0.90
2022-12-31T13:21:45.275Z,0.80
2022-12-31T13:24:51.935Z,0.70
2022-12-31T13:27:35.831Z,0.77
2022-12-31T13:30:13.729Z,0.60
2022-12-31T13:32:51.134Z,0.77
2022-12-31T13:35:54.712Z,0.70
2022-12-31T13:38:35.797Z,4.13
2022-12-31T13:41:56.650Z,1.00
2022-12-31T13:44:37.415Z,0.90
2022-12-31T13:47:28.555Z,0.85
2022-12-31T13:50:01.921Z,0.90
2022-12-31T13:52:54.076Z,0.90
2022-12-31T13:55:35.390Z,1.60
2022-12-31T14:01:15.693Z,0.85
2022-12-31T14:04:06.276Z,0.98
2022-12-31T14:07:05.773Z,0.50
2022-12-31T14:09:36.163Z,0.63
2022-12-31T14:12:27.226Z,0.97
2022-12-31T14:15:04.180Z,1.75
2022-12-31T14:18:03.276Z,1.00
2022-12-31T14:20:43.176Z,0.90
2022-12-31T14:23:36.099Z,0.60
2022-12-31T14:26:14.156Z,0.50
2022-12-31T14:28:49.136Z,0.90
2022-12-31T14:31:17.127Z,0.90
2022-12-31T14:33:56.088Z,1.30
2022-12-31T14:36:52.815Z,1.38
2022-12-31T14:39:26.393Z,1.10
2022-12-31T14:42:13.547Z,1.00
2022-12-31T14:45:06.689Z,1.58
2022-12-31T14:48:04.187Z,2.78
2022-12-31T14:50:35.020Z,4.65
2022-12-31T14:53:07.351Z,1.70
2022-12-31T14:55:40.159Z,2.08
2022-12-31T14:58:34.782Z,2.10
2022-12-31T15:01:17.090Z,1.90
2022-12-31T15:03:46.559Z,1.92
2022-12-31T15:06:33.501Z,1.95
2022-12-31T15:09:39.782Z,2.20
2022-12-31T15:12:16.734Z,1.92
2022-12-31T15:15:20.350Z,1.90
2022-12-31T15:18:06.284Z,1.98
2022-12-31T15:20:46.128Z,2.60
2022-12-31T15:23:39.229Z,2.47
2022-12-31T15:26:23.590Z,2.53
2022-12-31T15:29:05.240Z,2.17
2022-12-31T15:34:08.021Z,1.75
2022-12-31T15:36:40.584Z,2.47
2022-12-31T15:39:31.637Z,3.47
2022-12-31T15:44:52.899Z,3.05
2022-12-31T15:50:09.036Z,3.75
2022-12-31T15:52:43.231Z,5.07
2022-12-31T15:55:34.935Z,4.30
2022-12-31T15:58:11.372Z,5.10
2022-12-31T16:01:07.482Z,4.22
2022-12-31T16:03:36.076Z,16.55
2022-12-31T16:06:11.708Z,8.77
2022-12-31T16:08:47.535Z,9.95
2022-12-31T16:11:16.596Z,8.98
2022-12-31T16:13:49.534Z,7.30
2022-12-31T16:16:25.595Z,26.67
2022-12-31T16:18:54.317Z,22.65
2022-12-31T16:21:34.861Z,13.50
2022-12-31T16:24:25.409Z,8.43
2022-12-31T16:26:56.037Z,9.15
2022-12-31T16:29:25.211Z,8.00
2022-12-31T16:31:54.835Z,6.05
2022-12-31T16:34:28.482Z,5.35
2022-12-31T16:37:01.003Z,6.05
2022-12-31T16:39:42.079Z,9.15
2022-12-31T16:42:22.355Z,7.68
2022-12-31T16:44:52.111Z,8.48
2022-12-31T16:47:20.123Z,8.02
2022-12-31T16:49:53.285Z,6.32
2022-12-31T16:52:36.586Z,7.15
2022-12-31T16:55:09.873Z,8.07
2022-12-31T16:57:38.189Z,8.35
2022-12-31T17:00:08.041Z,8.27
2022-12-31T17:02:40.074Z,7.85
2022-12-31T17:05:19.700Z,8.98
2022-12-31T17:07:47.724Z,9.30
2022-12-31T17:10:27.419Z,9.60
2022-12-31T17:13:28.053Z,9.68
2022-12-31T17:15:49.720Z,9.23
2022-12-31T17:18:31.436Z,11.02
2022-12-31T17:21:08.441Z,9.82
2022-12-31T17:23:39.089Z,9.68
2022-12-31T17:26:25.343Z,9.40
2022-12-31T17:28:56.639Z,10.93
2022-12-31T17:31:42.261Z,9.73
2022-12-31T17:34:16.267Z,9.32
2022-12-31T17:37:14.308Z,9.30
2022-12-31T17:39:53.256Z,10.75
2022-12-31T17:42:37.617Z,12.15
2022-12-31T17:45:16.783Z,12.32
2022-12-31T17:47:49.286Z,20.52
2022-12-31T17:50:28.854Z,20.08
2022-12-31T17:53:13.639Z,17.75
2022-12-31T17:55:43.272Z,18.30
2022-12-31T17:58:29.602Z,19.02
2022-12-31T18:01:03.767Z,18.75
2022-12-31T18:03:31.753Z,74.95
2022-12-31T18:05:59.726Z,20.55
2022-12-31T18:08:27.660Z,36.95
2022-12-31T18:10:56.231Z,26.00
2022-12-31T18:13:26.459Z,20.73
2022-12-31T18:15:55.257Z,17.83
2022-12-31T18:18:26.286Z,20.15
2022-12-31T18:20:58.698Z,24.02
2022-12-31T18:23:41.408Z,30.60
2022-12-31T18:26:17.924Z,33.85
2022-12-31T18:28:46.487Z,36.20
2022-12-31T18:31:27.842Z,37.75
2022-12-31T18:34:00.989Z,34.42
2022-12-31T18:36:32.113Z,26.95
2022-12-31T18:39:00.135Z,40.72
2022-12-31T18:41:40.717Z,35.70
2022-12-31T18:44:12.742Z,26.50
2022-12-31T18:46:40.776Z,25.80
2022-12-31T18:49:09.539Z,29.42
2022-12-31T18:51:37.624Z,27.15
2022-12-31T18:54:06.312Z,38.83
2022-12-31T18:56:34.262Z,61.60
2022-12-31T18:59:03.641Z,36.55
2022-12-31T19:01:34.757Z,30.02
2022-12-31T19:04:05.016Z,31.38
2022-12-31T19:06:33.017Z,32.28
2022-12-31T19:09:01.291Z,28.13
2022-12-31T19:11:29.597Z,26.05
2022-12-31T19:13:57.498Z,28.50
2022-12-31T19:16:25.616Z,29.00
2022-12-31T19:18:53.558Z,36.10
2022-12-31T19:21:23.807Z,37.50
2022-12-31T19:23:53.251Z,31.48
2022-12-31T19:26:22.797Z,28.70
2022-12-31T19:28:51.901Z,30.30
2022-12-31T19:31:20.007Z,27.30
2022-12-31T19:33:48.143Z,26.98
2022-12-31T19:36:20.860Z,26.02
2022-12-31T19:38:48.834Z,26.52
2022-12-31T19:41:24.275Z,26.55
2022-12-31T19:43:52.235Z,23.10
2022-12-31T19:46:21.836Z,26.75
2022-12-31T19:48:49.836Z,30.63
2022-12-31T19:51:20.405Z,25.38
2022-12-31T19:53:49.983Z,30.77
2022-12-31T19:56:20.668Z,23.48
2022-12-31T19:58:48.838Z,25.95
2022-12-31T20:01:22.695Z,25.45
2022-12-31T20:03:51.635Z,25.30
2022-12-31T20:06:20.858Z,29.85
2022-12-31T20:08:48.912Z,26.42
2022-12-31T20:11:19.729Z,24.02
2022-12-31T20:13:49.407Z,30.17
2022-12-31T20:16:19.968Z,33.75
2022-12-31T20:18:49.275Z,31.53
2022-12-31T20:21:20.695Z,32.55
2022-12-31T20:26:17.504Z,37.15
2022-12-31T20:28:45.515Z,28.52
2022-12-31T20:31:19.773Z,38.47
2022-12-31T20:33:47.835Z,34.00
2022-12-31T20:36:17.941Z,49.15
2022-12-31T20:38:46.680Z,42.78
2022-12-31T20:41:23.639Z,45.53
2022-12-31T20:43:54.706Z,43.28
2022-12-31T20:46:25.809Z,56.53
2022-12-31T20:48:57.108Z,73.57
2022-12-31T20:51:26.715Z,70.07
2022-12-31T20:54:01.668Z,71.43
2022-12-31T20:56:32.123Z,69.22
2022-12-31T20:59:00.277Z,85.57
2022-12-31T21:01:41.723Z,89.47
2022-12-31T21:04:16.922Z,79.22
2022-12-31T21:06:45.095Z,85.95
2022-12-31T21:09:13.131Z,68.57
2022-12-31T21:12:00.481Z,79.93
2022-12-31T21:14:28.517Z,64.18
2022-12-31T21:16:58.021Z,51.63
2022-12-31T21:19:29.071Z,61.42
2022-12-31T21:21:57.051Z,39.30
2022-12-31T21:24:25.093Z,47.63
2022-12-31T21:26:55.941Z,45.03
2022-12-31T21:29:24.587Z,130.00
2022-12-31T21:31:52.560Z,58.33
2022-12-31T21:34:20.545Z,44.08
2022-12-31T21:36:48.677Z,32.00
2022-12-31T21:39:16.618Z,45.50
2022-12-31T21:41:53.383Z,22.00
2022-12-31T21:44:23.346Z,26.08
2022-12-31T21:47:33.982Z,35.88
2022-12-31T21:49:45.368Z,27.38
2022-12-31T21:52:34.554Z,25.35
2022-12-31T21:55:23.840Z,27.10
2022-12-31T21:58:24.701Z,21.65
2022-12-31T22:00:59.506Z,18.48
2022-12-31T22:03:33.409Z,15.82
2022-12-31T22:06:17.254Z,15.93
2022-12-31T22:08:46.845Z,15.55
2022-12-31T22:11:16.481Z,24.60
2022-12-31T22:13:44.823Z,40.72
2022-12-31T22:16:15.149Z,33.65
2022-12-31T22:18:45.104Z,37.40
2022-12-31T22:21:19.015Z,46.22
2022-12-31T22:23:53.428Z,38.05
2022-12-31T22:26:27.292Z,36.28
2022-12-31T22:29:00.131Z,32.17
2022-12-31T22:31:31.246Z,22.10
2022-12-31T22:34:00.517Z,27.17
2022-12-31T22:36:35.872Z,25.15
2022-12-31T22:39:07.029Z,21.42
2022-12-31T22:41:35.313Z,21.52
2022-12-31T22:44:05.375Z,34.28
2022-12-31T22:46:34.325Z,33.30
2022-12-31T22:49:05.215Z,36.90
2022-12-31T22:51:54.739Z,39.15
2022-12-31T22:54:23.479Z,33.47
2022-12-31T22:56:51.806Z,32.25
2022-12-31T22:59:19.784Z,33.67
2022-12-31T23:01:47.901Z,31.35
2022-12-31T23:04:16.189Z,31.00
2022-12-31T23:06:47.092Z,31.58
2022-12-31T23:09:35.509Z,47.80
2022-12-31T23:12:08.603Z,83.88
2022-12-31T23:14:58.276Z,101.10
2022-12-31T23:17:46.872Z,189.52
2022-12-31T23:20:37.288Z,346.75
2022-12-31T23:23:12.855Z,320.38
2022-12-31T23:25:44.371Z,272.90
2022-12-31T23:30:43.762Z,226.20
2022-12-31T23:33:19.019Z,219.05
2022-12-31T23:35:47.082Z,190.80
2022-12-31T23:38:17.711Z,199.90
2022-12-31T23:40:46.178Z,224.38
2022-12-31T23:43:21.488Z,168.90
2022-12-31T23:45:51.431Z,323.45
2022-12-31T23:48:19.651Z,237.18
2022-12-31T23:50:53.460Z,267.17
2022-12-31T23:53:23.294Z,243.48
2022-12-31T23:55:52.020Z,228.95
2022-12-31T23:58:20.295Z,185.50
